sensor_id;sensor_type;location;lat;lon;timestamp;temperature;humidity
75799;DHT22;70933;44.692;37.776;2023-07-20T00:00:31;27.06;29.49
75799;DHT22;70933;44.692;37.776;2023-07-20T00:01:32;27.05;29.16
75799;DHT22;70933;44.692;37.776;2023-07-20T00:02:34;27.06;28.86
75799;DHT22;70933;44.692;37.776;2023-07-20T00:03:36;27.05;28.55
75799;DHT22;70933;44.692;37.776;2023-07-20T00:04:38;27.04;28.24
75799;DHT22;70933;44.692;37.776;2023-07-20T00:05:39;27.02;27.91
75799;DHT22;70933;44.692;37.776;2023-07-20T00:06:41;27.02;28.20
75799;DHT22;70933;44.692;37.776;2023-07-20T00:07:43;27.02;29.49
75799;DHT22;70933;44.692;37.776;2023-07-20T00:08:45;27.04;30.71
75799;DHT22;70933;44.692;37.776;2023-07-20T00:09:47;27.06;31.06
75799;DHT22;70933;44.692;37.776;2023-07-20T00:10:49;27.08;30.07
75799;DHT22;70933;44.692;37.776;2023-07-20T00:11:52;27.07;29.74
75799;DHT22;70933;44.692;37.776;2023-07-20T00:12:54;27.06;29.58
75799;DHT22;70933;44.692;37.776;2023-07-20T00:13:56;27.06;29.00
75799;DHT22;70933;44.692;37.776;2023-07-20T00:14:57;27.05;28.79
75799;DHT22;70933;44.692;37.776;2023-07-20T00:15:59;27.02;28.40
75799;DHT22;70933;44.692;37.776;2023-07-20T00:17:02;27.02;28.15
75799;DHT22;70933;44.692;37.776;2023-07-20T00:18:04;27.01;27.81
75799;DHT22;70933;44.692;37.776;2023-07-20T00:19:06;27.00;28.71
75799;DHT22;70933;44.692;37.776;2023-07-20T00:20:08;27.01;30.10
75799;DHT22;70933;44.692;37.776;2023-07-20T00:21:10;27.02;31.35
75799;DHT22;70933;44.692;37.776;2023-07-20T00:22:12;27.04;30.62
75799;DHT22;70933;44.692;37.776;2023-07-20T00:23:15;27.05;30.08
75799;DHT22;70933;44.692;37.776;2023-07-20T00:24:16;27.04;29.66
75799;DHT22;70933;44.692;37.776;2023-07-20T00:25:18;27.04;29.19
75799;DHT22;70933;44.692;37.776;2023-07-20T00:26:21;27.05;28.66
75799;DHT22;70933;44.692;37.776;2023-07-20T00:27:23;27.02;28.46
75799;DHT22;70933;44.692;37.776;2023-07-20T00:28:25;27.02;27.99
75799;DHT22;70933;44.692;37.776;2023-07-20T00:29:27;27.01;27.70
75799;DHT22;70933;44.692;37.776;2023-07-20T00:30:28;26.99;27.75
75799;DHT22;70933;44.692;37.776;2023-07-20T00:31:30;26.99;28.88
75799;DHT22;70933;44.692;37.776;2023-07-20T00:32:32;27.00;30.46
75799;DHT22;70933;44.692;37.776;2023-07-20T00:33:34;27.02;30.83
75799;DHT22;70933;44.692;37.776;2023-07-20T00:34:35;27.04;29.96
75799;DHT22;70933;44.692;37.776;2023-07-20T00:35:38;27.05;29.53
75799;DHT22;70933;44.692;37.776;2023-07-20T00:36:40;27.02;29.08
75799;DHT22;70933;44.692;37.776;2023-07-20T00:37:42;27.04;28.74
75799;DHT22;70933;44.692;37.776;2023-07-20T00:38:45;27.01;28.34
75799;DHT22;70933;44.692;37.776;2023-07-20T00:39:46;27.01;27.97
75799;DHT22;70933;44.692;37.776;2023-07-20T00:40:48;27.00;27.68
75799;DHT22;70933;44.692;37.776;2023-07-20T00:41:54;26.99;27.34
75799;DHT22;70933;44.692;37.776;2023-07-20T00:42:55;26.98;28.02
75799;DHT22;70933;44.692;37.776;2023-07-20T00:43:59;26.99;29.51
75799;DHT22;70933;44.692;37.776;2023-07-20T00:45:01;27.02;31.02
75799;DHT22;70933;44.692;37.776;2023-07-20T00:46:08;27.02;30.15
75799;DHT22;70933;44.692;37.776;2023-07-20T00:47:10;27.02;29.67
75799;DHT22;70933;44.692;37.776;2023-07-20T00:48:13;27.02;29.32
75799;DHT22;70933;44.692;37.776;2023-07-20T00:49:16;27.02;28.97
75799;DHT22;70933;44.692;37.776;2023-07-20T00:50:23;27.01;28.74
75799;DHT22;70933;44.692;37.776;2023-07-20T00:51:26;27.00;28.27
75799;DHT22;70933;44.692;37.776;2023-07-20T00:52:28;26.98;28.00
75799;DHT22;70933;44.692;37.776;2023-07-20T00:53:30;27.00;27.60
75799;DHT22;70933;44.692;37.776;2023-07-20T00:54:32;26.98;27.71
75799;DHT22;70933;44.692;37.776;2023-07-20T00:55:34;26.99;28.95
75799;DHT22;70933;44.692;37.776;2023-07-20T00:56:36;26.99;30.22
75799;DHT22;70933;44.692;37.776;2023-07-20T00:57:38;27.01;30.91
75799;DHT22;70933;44.692;37.776;2023-07-20T00:58:42;27.02;29.81
75799;DHT22;70933;44.692;37.776;2023-07-20T00:59:44;27.02;29.35
75799;DHT22;70933;44.692;37.776;2023-07-20T01:00:46;27.01;28.96
75799;DHT22;70933;44.692;37.776;2023-07-20T01:01:48;26.99;28.67
75799;DHT22;70933;44.692;37.776;2023-07-20T01:02:51;26.99;28.29
75799;DHT22;70933;44.692;37.776;2023-07-20T01:03:53;26.98;27.93
75799;DHT22;70933;44.692;37.776;2023-07-20T01:04:55;26.98;27.67
75799;DHT22;70933;44.692;37.776;2023-07-20T01:07:26;26.96;28.28
75799;DHT22;70933;44.692;37.776;2023-07-20T01:09:48;26.99;30.61
75799;DHT22;70933;44.692;37.776;2023-07-20T01:11:06;27.00;29.58
75799;DHT22;70933;44.692;37.776;2023-07-20T01:12:12;27.00;29.14
75799;DHT22;70933;44.692;37.776;2023-07-20T01:13:16;26.99;28.75
75799;DHT22;70933;44.692;37.776;2023-07-20T01:14:20;26.99;28.41
75799;DHT22;70933;44.692;37.776;2023-07-20T01:15:22;26.98;28.01
75799;DHT22;70933;44.692;37.776;2023-07-20T01:16:24;26.98;27.74
75799;DHT22;70933;44.692;37.776;2023-07-20T01:17:26;26.97;27.48
75799;DHT22;70933;44.692;37.776;2023-07-20T01:18:28;26.95;27.55
75799;DHT22;70933;44.692;37.776;2023-07-20T01:19:30;26.95;28.77
75799;DHT22;70933;44.692;37.776;2023-07-20T01:20:34;26.98;30.23
75799;DHT22;70933;44.692;37.776;2023-07-20T01:23:27;26.98;29.45
75799;DHT22;70933;44.692;37.776;2023-07-20T01:27:25;26.97;27.99
75799;DHT22;70933;44.692;37.776;2023-07-20T01:30:24;26.95;27.25
75799;DHT22;70933;44.692;37.776;2023-07-20T01:31:29;26.94;28.53
75799;DHT22;70933;44.692;37.776;2023-07-20T01:32:32;26.95;29.92
75799;DHT22;70933;44.692;37.776;2023-07-20T01:33:36;26.98;30.58
75799;DHT22;70933;44.692;37.776;2023-07-20T01:34:38;26.97;29.70
75799;DHT22;70933;44.692;37.776;2023-07-20T01:35:42;26.98;29.15
75799;DHT22;70933;44.692;37.776;2023-07-20T01:36:46;26.98;28.87
75799;DHT22;70933;44.692;37.776;2023-07-20T01:37:50;26.98;28.43
75799;DHT22;70933;44.692;37.776;2023-07-20T01:38:53;26.96;28.03
75799;DHT22;70933;44.692;37.776;2023-07-20T01:39:56;26.95;27.74
75799;DHT22;70933;44.692;37.776;2023-07-20T01:40:58;26.94;27.46
75799;DHT22;70933;44.692;37.776;2023-07-20T01:42:01;26.95;27.29
75799;DHT22;70933;44.692;37.776;2023-07-20T01:43:03;26.94;27.94
75799;DHT22;70933;44.692;37.776;2023-07-20T01:44:05;26.94;29.31
75799;DHT22;70933;44.692;37.776;2023-07-20T01:45:07;26.96;30.82
75799;DHT22;70933;44.692;37.776;2023-07-20T01:46:09;26.97;30.12
75799;DHT22;70933;44.692;37.776;2023-07-20T01:47:11;26.96;29.51
75799;DHT22;70933;44.692;37.776;2023-07-20T01:48:13;26.96;28.95
75799;DHT22;70933;44.692;37.776;2023-07-20T01:49:15;26.96;28.64
75799;DHT22;70933;44.692;37.776;2023-07-20T01:50:17;26.96;28.24
75799;DHT22;70933;44.692;37.776;2023-07-20T01:51:18;26.94;27.72
75799;DHT22;70933;44.692;37.776;2023-07-20T01:52:20;26.93;27.45
75799;DHT22;70933;44.692;37.776;2023-07-20T01:53:22;26.93;27.13
75799;DHT22;70933;44.692;37.776;2023-07-20T01:54:24;26.91;27.10
75799;DHT22;70933;44.692;37.776;2023-07-20T01:55:26;26.93;28.24
75799;DHT22;70933;44.692;37.776;2023-07-20T01:56:28;26.93;29.58
75799;DHT22;70933;44.692;37.776;2023-07-20T01:57:30;26.95;30.20
75799;DHT22;70933;44.692;37.776;2023-07-20T01:58:32;26.95;29.48
75799;DHT22;70933;44.692;37.776;2023-07-20T01:59:34;26.96;29.10
75799;DHT22;70933;44.692;37.776;2023-07-20T02:00:37;26.96;28.64
75799;DHT22;70933;44.692;37.776;2023-07-20T02:01:39;26.96;28.23
75799;DHT22;70933;44.692;37.776;2023-07-20T02:02:41;26.95;27.91
75799;DHT22;70933;44.692;37.776;2023-07-20T02:03:44;26.94;27.60
75799;DHT22;70933;44.692;37.776;2023-07-20T02:04:45;26.94;27.24
75799;DHT22;70933;44.692;37.776;2023-07-20T02:05:47;26.93;26.93
75799;DHT22;70933;44.692;37.776;2023-07-20T02:06:49;26.92;27.38
75799;DHT22;70933;44.692;37.776;2023-07-20T02:07:51;26.93;28.57
75799;DHT22;70933;44.692;37.776;2023-07-20T02:08:55;26.94;30.24
75799;DHT22;70933;44.692;37.776;2023-07-20T02:09:57;26.95;30.16
75799;DHT22;70933;44.692;37.776;2023-07-20T02:10:58;26.95;29.46
75799;DHT22;70933;44.692;37.776;2023-07-20T02:12:00;26.96;29.10
75799;DHT22;70933;44.692;37.776;2023-07-20T02:13:02;26.95;28.73
75799;DHT22;70933;44.692;37.776;2023-07-20T02:14:04;26.95;28.23
75799;DHT22;70933;44.692;37.776;2023-07-20T02:15:07;26.93;27.96
75799;DHT22;70933;44.692;37.776;2023-07-20T02:16:10;26.93;27.51
75799;DHT22;70933;44.692;37.776;2023-07-20T02:17:12;26.92;27.36
75799;DHT22;70933;44.692;37.776;2023-07-20T02:18:15;26.91;27.10
75799;DHT22;70933;44.692;37.776;2023-07-20T02:19:18;26.91;28.12
75799;DHT22;70933;44.692;37.776;2023-07-20T02:20:20;26.92;29.45
75799;DHT22;70933;44.692;37.776;2023-07-20T02:21:22;26.94;30.21
75799;DHT22;70933;44.692;37.776;2023-07-20T02:22:24;26.94;29.54
75799;DHT22;70933;44.692;37.776;2023-07-20T02:23:26;26.97;29.00
75799;DHT22;70933;44.692;37.776;2023-07-20T02:24:28;26.95;28.61
75799;DHT22;70933;44.692;37.776;2023-07-20T02:25:30;26.95;28.23
75799;DHT22;70933;44.692;37.776;2023-07-20T02:26:31;26.94;27.84
75799;DHT22;70933;44.692;37.776;2023-07-20T02:27:34;26.94;27.62
75799;DHT22;70933;44.692;37.776;2023-07-20T02:28:36;26.92;27.23
75799;DHT22;70933;44.692;37.776;2023-07-20T02:29:38;26.91;26.88
75799;DHT22;70933;44.692;37.776;2023-07-20T02:30:40;26.91;27.08
75799;DHT22;70933;44.692;37.776;2023-07-20T02:31:41;26.93;28.29
75799;DHT22;70933;44.692;37.776;2023-07-20T02:32:44;26.93;29.64
75799;DHT22;70933;44.692;37.776;2023-07-20T02:33:49;26.95;29.77
75799;DHT22;70933;44.692;37.776;2023-07-20T02:34:52;26.95;29.07
75799;DHT22;70933;44.692;37.776;2023-07-20T02:35:53;26.96;28.59
75799;DHT22;70933;44.692;37.776;2023-07-20T02:36:55;26.95;28.19
75799;DHT22;70933;44.692;37.776;2023-07-20T02:38:02;26.94;27.81
75799;DHT22;70933;44.692;37.776;2023-07-20T02:39:04;26.94;27.48
75799;DHT22;70933;44.692;37.776;2023-07-20T02:40:07;26.92;27.29
75799;DHT22;70933;44.692;37.776;2023-07-20T02:41:09;26.91;26.86
75799;DHT22;70933;44.692;37.776;2023-07-20T02:42:11;26.90;26.74
75799;DHT22;70933;44.692;37.776;2023-07-20T02:43:13;26.91;27.78
75799;DHT22;70933;44.692;37.776;2023-07-20T02:44:14;26.91;29.22
75799;DHT22;70933;44.692;37.776;2023-07-20T02:45:16;26.93;30.44
75799;DHT22;70933;44.692;37.776;2023-07-20T02:46:18;26.95;29.39
75799;DHT22;70933;44.692;37.776;2023-07-20T02:47:20;26.95;28.93
75799;DHT22;70933;44.692;37.776;2023-07-20T02:48:22;26.95;28.52
75799;DHT22;70933;44.692;37.776;2023-07-20T02:49:24;26.95;28.16
75799;DHT22;70933;44.692;37.776;2023-07-20T02:50:25;26.93;27.74
75799;DHT22;70933;44.692;37.776;2023-07-20T02:51:27;26.93;27.56
75799;DHT22;70933;44.692;37.776;2023-07-20T02:52:29;26.94;27.25
75799;DHT22;70933;44.692;37.776;2023-07-20T02:53:31;26.92;26.92
75799;DHT22;70933;44.692;37.776;2023-07-20T02:54:33;26.91;27.10
75799;DHT22;70933;44.692;37.776;2023-07-20T02:55:35;26.91;28.32
75799;DHT22;70933;44.692;37.776;2023-07-20T02:56:37;26.93;29.93
75799;DHT22;70933;44.692;37.776;2023-07-20T02:57:38;26.93;30.35
75799;DHT22;70933;44.692;37.776;2023-07-20T02:58:41;26.95;29.53
75799;DHT22;70933;44.692;37.776;2023-07-20T02:59:47;26.95;28.98
75799;DHT22;70933;44.692;37.776;2023-07-20T03:00:49;26.95;28.73
75799;DHT22;70933;44.692;37.776;2023-07-20T03:01:51;26.94;28.36
75799;DHT22;70933;44.692;37.776;2023-07-20T03:02:52;26.94;28.07
75799;DHT22;70933;44.692;37.776;2023-07-20T03:03:57;26.93;27.64
75799;DHT22;70933;44.692;37.776;2023-07-20T03:04:59;26.91;27.41
75799;DHT22;70933;44.692;37.776;2023-07-20T03:06:03;26.91;27.14
75799;DHT22;70933;44.692;37.776;2023-07-20T03:07:05;26.91;27.84
75799;DHT22;70933;44.692;37.776;2023-07-20T03:08:07;26.91;29.18
75799;DHT22;70933;44.692;37.776;2023-07-20T03:09:09;26.93;30.60
75799;DHT22;70933;44.692;37.776;2023-07-20T03:10:11;26.94;29.87
75799;DHT22;70933;44.692;37.776;2023-07-20T03:11:14;26.96;29.24
75799;DHT22;70933;44.692;37.776;2023-07-20T03:12:17;26.94;28.81
75799;DHT22;70933;44.692;37.776;2023-07-20T03:13:19;26.94;28.42
75799;DHT22;70933;44.692;37.776;2023-07-20T03:14:21;26.95;28.01
75799;DHT22;70933;44.692;37.776;2023-07-20T03:15:22;26.92;27.71
75799;DHT22;70933;44.692;37.776;2023-07-20T03:16:24;26.91;27.28
75799;DHT22;70933;44.692;37.776;2023-07-20T03:17:27;26.91;26.90
75799;DHT22;70933;44.692;37.776;2023-07-20T03:18:29;26.90;26.98
75799;DHT22;70933;44.692;37.776;2023-07-20T03:19:32;26.91;28.23
75799;DHT22;70933;44.692;37.776;2023-07-20T03:20:35;26.90;29.40
75799;DHT22;70933;44.692;37.776;2023-07-20T03:21:37;26.93;30.00
75799;DHT22;70933;44.692;37.776;2023-07-20T03:22:42;26.93;29.10
75799;DHT22;70933;44.692;37.776;2023-07-20T03:23:44;26.93;28.65
75799;DHT22;70933;44.692;37.776;2023-07-20T03:24:46;26.92;28.42
75799;DHT22;70933;44.692;37.776;2023-07-20T03:25:52;26.92;28.03
75799;DHT22;70933;44.692;37.776;2023-07-20T03:26:56;26.90;27.67
75799;DHT22;70933;44.692;37.776;2023-07-20T03:27:58;26.90;27.29
75799;DHT22;70933;44.692;37.776;2023-07-20T03:29:00;26.90;26.96
75799;DHT22;70933;44.692;37.776;2023-07-20T03:30:03;26.86;26.70
75799;DHT22;70933;44.692;37.776;2023-07-20T03:31:05;26.87;27.62
75799;DHT22;70933;44.692;37.776;2023-07-20T03:32:10;26.90;29.25
75799;DHT22;70933;44.692;37.776;2023-07-20T03:33:12;26.90;30.51
75799;DHT22;70933;44.692;37.776;2023-07-20T03:34:14;26.91;29.99
75799;DHT22;70933;44.692;37.776;2023-07-20T03:35:15;26.93;29.41
75799;DHT22;70933;44.692;37.776;2023-07-20T03:36:18;26.91;29.19
75799;DHT22;70933;44.692;37.776;2023-07-20T03:37:19;26.90;28.81
75799;DHT22;70933;44.692;37.776;2023-07-20T03:38:22;26.92;28.56
75799;DHT22;70933;44.692;37.776;2023-07-20T03:39:24;26.90;28.14
75799;DHT22;70933;44.692;37.776;2023-07-20T03:40:26;26.89;27.85
75799;DHT22;70933;44.692;37.776;2023-07-20T03:41:27;26.87;27.55
75799;DHT22;70933;44.692;37.776;2023-07-20T03:42:29;26.89;27.50
75799;DHT22;70933;44.692;37.776;2023-07-20T03:43:31;26.89;28.68
75799;DHT22;70933;44.692;37.776;2023-07-20T03:44:33;26.90;29.84
75799;DHT22;70933;44.692;37.776;2023-07-20T03:45:34;26.92;30.48
75799;DHT22;70933;44.692;37.776;2023-07-20T03:46:36;26.93;29.69
75799;DHT22;70933;44.692;37.776;2023-07-20T03:47:38;26.93;29.19
75799;DHT22;70933;44.692;37.776;2023-07-20T03:48:40;26.93;28.74
75799;DHT22;70933;44.692;37.776;2023-07-20T03:49:42;26.92;28.27
75799;DHT22;70933;44.692;37.776;2023-07-20T03:50:45;26.92;27.94
75799;DHT22;70933;44.692;37.776;2023-07-20T03:51:47;26.91;27.65
75799;DHT22;70933;44.692;37.776;2023-07-20T03:52:48;26.91;27.35
75799;DHT22;70933;44.692;37.776;2023-07-20T03:53:50;26.89;27.05
75799;DHT22;70933;44.692;37.776;2023-07-20T03:54:52;26.89;27.49
75799;DHT22;70933;44.692;37.776;2023-07-20T03:55:54;26.90;28.74
75799;DHT22;70933;44.692;37.776;2023-07-20T03:56:56;26.91;30.00
75799;DHT22;70933;44.692;37.776;2023-07-20T03:57:59;26.92;29.80
75799;DHT22;70933;44.692;37.776;2023-07-20T03:59:02;26.94;29.08
75799;DHT22;70933;44.692;37.776;2023-07-20T04:00:04;26.95;28.55
75799;DHT22;70933;44.692;37.776;2023-07-20T04:01:14;26.94;28.22
75799;DHT22;70933;44.692;37.776;2023-07-20T04:02:18;26.93;27.87
75799;DHT22;70933;44.692;37.776;2023-07-20T04:03:20;26.94;27.62
75799;DHT22;70933;44.692;37.776;2023-07-20T04:04:24;26.92;27.32
75799;DHT22;70933;44.692;37.776;2023-07-20T04:05:26;26.90;27.06
75799;DHT22;70933;44.692;37.776;2023-07-20T04:06:27;26.91;27.06
75799;DHT22;70933;44.692;37.776;2023-07-20T04:07:29;26.92;28.29
75799;DHT22;70933;44.692;37.776;2023-07-20T04:08:31;26.93;29.68
75799;DHT22;70933;44.692;37.776;2023-07-20T04:09:33;26.94;30.32
75799;DHT22;70933;44.692;37.776;2023-07-20T04:10:34;26.93;29.46
75799;DHT22;70933;44.692;37.776;2023-07-20T04:11:36;26.94;28.98
75799;DHT22;70933;44.692;37.776;2023-07-20T04:12:38;26.95;28.34
75799;DHT22;70933;44.692;37.776;2023-07-20T04:13:40;26.94;28.10
75799;DHT22;70933;44.692;37.776;2023-07-20T04:14:42;26.94;27.81
75799;DHT22;70933;44.692;37.776;2023-07-20T04:15:44;26.95;27.55
75799;DHT22;70933;44.692;37.776;2023-07-20T04:16:47;26.93;27.25
75799;DHT22;70933;44.692;37.776;2023-07-20T04:17:49;26.91;27.08
75799;DHT22;70933;44.692;37.776;2023-07-20T04:18:50;26.91;27.48
75799;DHT22;70933;44.692;37.776;2023-07-20T04:19:52;26.93;28.71
75799;DHT22;70933;44.692;37.776;2023-07-20T04:20:54;26.94;29.98
75799;DHT22;70933;44.692;37.776;2023-07-20T04:21:56;26.95;29.95
75799;DHT22;70933;44.692;37.776;2023-07-20T04:22:57;26.97;29.29
75799;DHT22;70933;44.692;37.776;2023-07-20T04:24:00;26.97;28.73
75799;DHT22;70933;44.692;37.776;2023-07-20T04:25:03;26.96;28.32
75799;DHT22;70933;44.692;37.776;2023-07-20T04:26:05;26.97;27.85
75799;DHT22;70933;44.692;37.776;2023-07-20T04:27:08;26.96;27.65
75799;DHT22;70933;44.692;37.776;2023-07-20T04:28:10;26.94;27.28
75799;DHT22;70933;44.692;37.776;2023-07-20T04:29:13;26.95;26.92
75799;DHT22;70933;44.692;37.776;2023-07-20T04:30:18;26.95;26.83
75799;DHT22;70933;44.692;37.776;2023-07-20T04:31:24;26.94;27.83
75799;DHT22;70933;44.692;37.776;2023-07-20T04:32:26;26.95;28.98
75799;DHT22;70933;44.692;37.776;2023-07-20T04:33:28;26.96;30.16
75799;DHT22;70933;44.692;37.776;2023-07-20T04:34:30;26.97;29.29
75799;DHT22;70933;44.692;37.776;2023-07-20T04:35:53;26.97;28.62
75799;DHT22;70933;44.692;37.776;2023-07-20T04:36:59;26.96;28.30
75799;DHT22;70933;44.692;37.776;2023-07-20T04:38:02;26.96;28.11
75799;DHT22;70933;44.692;37.776;2023-07-20T04:39:04;26.95;27.86
75799;DHT22;70933;44.692;37.776;2023-07-20T04:40:15;26.95;27.40
75799;DHT22;70933;44.692;37.776;2023-07-20T04:41:18;26.94;27.10
75799;DHT22;70933;44.692;37.776;2023-07-20T04:42:22;26.93;27.86
75799;DHT22;70933;44.692;37.776;2023-07-20T04:43:24;26.94;29.11
75799;DHT22;70933;44.692;37.776;2023-07-20T04:44:25;26.97;30.52
75799;DHT22;70933;44.692;37.776;2023-07-20T04:45:27;26.97;31.80
75799;DHT22;70933;44.692;37.776;2023-07-20T04:46:29;26.99;30.92
75799;DHT22;70933;44.692;37.776;2023-07-20T04:47:32;26.99;30.74
75799;DHT22;70933;44.692;37.776;2023-07-20T04:48:34;26.98;30.28
75799;DHT22;70933;44.692;37.776;2023-07-20T04:49:36;26.98;30.14
75799;DHT22;70933;44.692;37.776;2023-07-20T04:50:40;26.98;30.03
75799;DHT22;70933;44.692;37.776;2023-07-20T04:51:42;26.97;29.84
75799;DHT22;70933;44.692;37.776;2023-07-20T04:52:45;26.97;29.51
75799;DHT22;70933;44.692;37.776;2023-07-20T04:53:52;26.97;29.27
75799;DHT22;70933;44.692;37.776;2023-07-20T04:54:54;26.97;29.81
75799;DHT22;70933;44.692;37.776;2023-07-20T04:55:55;26.98;31.51
75799;DHT22;70933;44.692;37.776;2023-07-20T04:56:59;27.00;33.32
75799;DHT22;70933;44.692;37.776;2023-07-20T04:58:01;27.02;33.87
75799;DHT22;70933;44.692;37.776;2023-07-20T04:59:03;27.05;33.21
75799;DHT22;70933;44.692;37.776;2023-07-20T05:00:06;27.05;32.90
75799;DHT22;70933;44.692;37.776;2023-07-20T05:01:09;27.06;32.72
75799;DHT22;70933;44.692;37.776;2023-07-20T05:02:11;27.06;32.86
75799;DHT22;70933;44.692;37.776;2023-07-20T05:03:13;27.06;32.89
75799;DHT22;70933;44.692;37.776;2023-07-20T05:04:15;27.08;32.96
75799;DHT22;70933;44.692;37.776;2023-07-20T05:05:17;27.08;33.34
75799;DHT22;70933;44.692;37.776;2023-07-20T05:06:19;27.08;33.06
75799;DHT22;70933;44.692;37.776;2023-07-20T05:07:20;27.08;33.18
75799;DHT22;70933;44.692;37.776;2023-07-20T05:08:22;27.08;32.82
75799;DHT22;70933;44.692;37.776;2023-07-20T05:09:25;27.10;32.85
75799;DHT22;70933;44.692;37.776;2023-07-20T05:10:27;27.09;32.86
75799;DHT22;70933;44.692;37.776;2023-07-20T05:11:28;27.10;32.59
75799;DHT22;70933;44.692;37.776;2023-07-20T05:12:30;27.11;32.26
75799;DHT22;70933;44.692;37.776;2023-07-20T05:13:33;27.11;32.34
75799;DHT22;70933;44.692;37.776;2023-07-20T05:14:35;27.10;32.09
75799;DHT22;70933;44.692;37.776;2023-07-20T05:15:36;27.11;32.12
75799;DHT22;70933;44.692;37.776;2023-07-20T05:16:39;27.12;32.31
75799;DHT22;70933;44.692;37.776;2023-07-20T05:17:42;27.12;32.19
75799;DHT22;70933;44.692;37.776;2023-07-20T05:18:44;27.12;32.30
75799;DHT22;70933;44.692;37.776;2023-07-20T05:19:46;27.13;33.30
75799;DHT22;70933;44.692;37.776;2023-07-20T05:20:49;27.16;34.51
75799;DHT22;70933;44.692;37.776;2023-07-20T05:21:51;27.19;36.04
75799;DHT22;70933;44.692;37.776;2023-07-20T05:22:53;27.21;34.82
75799;DHT22;70933;44.692;37.776;2023-07-20T05:23:55;27.22;34.68
75799;DHT22;70933;44.692;37.776;2023-07-20T05:24:56;27.21;34.47
75799;DHT22;70933;44.692;37.776;2023-07-20T05:25:59;27.22;34.13
75799;DHT22;70933;44.692;37.776;2023-07-20T05:27:01;27.24;33.86
75799;DHT22;70933;44.692;37.776;2023-07-20T05:28:02;27.23;33.73
75799;DHT22;70933;44.692;37.776;2023-07-20T05:29:04;27.23;34.15
75799;DHT22;70933;44.692;37.776;2023-07-20T05:30:07;27.23;33.85
75799;DHT22;70933;44.692;37.776;2023-07-20T05:31:09;27.25;33.79
75799;DHT22;70933;44.692;37.776;2023-07-20T05:32:11;27.26;33.73
75799;DHT22;70933;44.692;37.776;2023-07-20T05:33:12;27.26;33.67
75799;DHT22;70933;44.692;37.776;2023-07-20T05:34:14;27.26;33.60
75799;DHT22;70933;44.692;37.776;2023-07-20T05:35:17;27.27;33.51
75799;DHT22;70933;44.692;37.776;2023-07-20T05:36:19;27.27;33.54
75799;DHT22;70933;44.692;37.776;2023-07-20T05:37:21;27.29;34.11
75799;DHT22;70933;44.692;37.776;2023-07-20T05:38:23;27.28;33.57
75799;DHT22;70933;44.692;37.776;2023-07-20T05:39:25;27.30;33.32
75799;DHT22;70933;44.692;37.776;2023-07-20T05:40:27;27.29;33.26
75799;DHT22;70933;44.692;37.776;2023-07-20T05:41:29;27.30;33.32
75799;DHT22;70933;44.692;37.776;2023-07-20T05:42:30;27.30;33.10
75799;DHT22;70933;44.692;37.776;2023-07-20T05:43:33;27.29;33.02
75799;DHT22;70933;44.692;37.776;2023-07-20T05:44:34;27.30;33.31
75799;DHT22;70933;44.692;37.776;2023-07-20T05:45:36;27.31;33.83
75799;DHT22;70933;44.692;37.776;2023-07-20T05:46:38;27.35;35.15
75799;DHT22;70933;44.692;37.776;2023-07-20T05:47:41;27.38;36.83
75799;DHT22;70933;44.692;37.776;2023-07-20T05:48:43;27.39;36.37
75799;DHT22;70933;44.692;37.776;2023-07-20T05:49:45;27.40;36.18
75799;DHT22;70933;44.692;37.776;2023-07-20T05:50:47;27.42;35.60
75799;DHT22;70933;44.692;37.776;2023-07-20T05:51:48;27.42;35.38
75799;DHT22;70933;44.692;37.776;2023-07-20T05:52:53;27.43;34.92
75799;DHT22;70933;44.692;37.776;2023-07-20T05:53:55;27.42;34.78
75799;DHT22;70933;44.692;37.776;2023-07-20T05:54:57;27.43;34.63
75799;DHT22;70933;44.692;37.776;2023-07-20T05:55:59;27.43;34.57
75799;DHT22;70933;44.692;37.776;2023-07-20T05:57:00;27.43;34.41
75799;DHT22;70933;44.692;37.776;2023-07-20T05:58:02;27.42;34.47
75799;DHT22;70933;44.692;37.776;2023-07-20T05:59:05;27.42;34.10
75799;DHT22;70933;44.692;37.776;2023-07-20T06:00:08;27.44;33.86
75799;DHT22;70933;44.692;37.776;2023-07-20T06:01:17;27.43;33.90
75799;DHT22;70933;44.692;37.776;2023-07-20T06:02:20;27.43;33.70
75799;DHT22;70933;44.692;37.776;2023-07-20T06:03:22;27.43;33.43
75799;DHT22;70933;44.692;37.776;2023-07-20T06:04:25;27.42;33.19
75799;DHT22;70933;44.692;37.776;2023-07-20T06:05:26;27.43;32.86
75799;DHT22;70933;44.692;37.776;2023-07-20T06:06:29;27.42;32.65
75799;DHT22;70933;44.692;37.776;2023-07-20T06:07:30;27.42;32.55
75799;DHT22;70933;44.692;37.776;2023-07-20T06:08:33;27.42;32.34
75799;DHT22;70933;44.692;37.776;2023-07-20T06:09:35;27.42;32.11
75799;DHT22;70933;44.692;37.776;2023-07-20T06:10:37;27.42;32.09
75799;DHT22;70933;44.692;37.776;2023-07-20T06:11:39;27.41;32.03
75799;DHT22;70933;44.692;37.776;2023-07-20T06:12:41;27.42;32.04
75799;DHT22;70933;44.692;37.776;2023-07-20T06:13:44;27.41;31.99
75799;DHT22;70933;44.692;37.776;2023-07-20T06:14:45;27.41;32.12
75799;DHT22;70933;44.692;37.776;2023-07-20T06:15:48;27.42;32.02
75799;DHT22;70933;44.692;37.776;2023-07-20T06:16:50;27.42;31.73
75799;DHT22;70933;44.692;37.776;2023-07-20T06:17:53;27.42;31.73
75799;DHT22;70933;44.692;37.776;2023-07-20T06:18:55;27.42;32.01
75799;DHT22;70933;44.692;37.776;2023-07-20T06:19:58;27.43;33.08
75799;DHT22;70933;44.692;37.776;2023-07-20T06:21:00;27.45;34.21
75799;DHT22;70933;44.692;37.776;2023-07-20T06:22:02;27.46;35.34
75799;DHT22;70933;44.692;37.776;2023-07-20T06:23:04;27.47;34.56
75799;DHT22;70933;44.692;37.776;2023-07-20T06:24:05;27.49;34.57
75799;DHT22;70933;44.692;37.776;2023-07-20T06:25:08;27.49;34.41
75799;DHT22;70933;44.692;37.776;2023-07-20T06:26:09;27.49;33.87
75799;DHT22;70933;44.692;37.776;2023-07-20T06:27:11;27.49;33.63
75799;DHT22;70933;44.692;37.776;2023-07-20T06:28:14;27.49;33.53
75799;DHT22;70933;44.692;37.776;2023-07-20T06:29:15;27.47;33.60
75799;DHT22;70933;44.692;37.776;2023-07-20T06:30:18;27.49;33.38
75799;DHT22;70933;44.692;37.776;2023-07-20T06:31:20;27.49;33.30
75799;DHT22;70933;44.692;37.776;2023-07-20T06:32:21;27.49;33.19
75799;DHT22;70933;44.692;37.776;2023-07-20T06:33:23;27.50;33.04
75799;DHT22;70933;44.692;37.776;2023-07-20T06:34:25;27.49;32.95
75799;DHT22;70933;44.692;37.776;2023-07-20T06:35:27;27.50;32.95
75799;DHT22;70933;44.692;37.776;2023-07-20T06:36:29;27.47;32.87
75799;DHT22;70933;44.692;37.776;2023-07-20T06:37:31;27.49;32.82